Saint Thomas, Canada
Current Conditions -  °F | °C
As of 8:00 AM on Saturday 25 Oct 2014 (Local Time) from CYXU Reporting Station
Haze Haze  
Wind Chill: 45°   Ceiling: Unl
Heat Index: 48°   Visibility: 5mi
Dew Point: 46°   Wind: 8mph
Humidity: 93%   Direction: 200°SSW
Pressure: 29.81"   Gusts: NA
Location:  42.78°N, 81.18°W
Report Text: CYXU 251200Z 20007KT 5SM BR FEW100 SCT210 09/08 A2981 RMK AC1CI3 SLP097
Loading
Personal Weather Stations






























Interactive Weather Map New forecast layout! Learn more

10-Day Weather Forecast

Advertisements
Track Severe Weather on mobile